Oval Lp No.11 — JL6306 — position and weather

sailwx.info

Track history (hours):
 
Tides and Currents Weather Stations Pressure Air Temp Water Temp Dewpoint Dewpoint Depression Visibility Wind Speed Wind Dir Waves Ship Positions

Oval Lp No.11

Last reported at 2014-Dec-21 05:28 UTC. Time now 2014-Dec-21 21:35 UTC.
Position N 35°11' E 139°46'.

Length 67 m; draft 3.6 m.

Type: Ship (hazmat cat A). MMSI: 431500366.

Date/timePositionNaut miles runAvg speedWind from/ knotsBaromVisibWave heightAir tempDewpointWater temp
2014-Dec-21 05:28N 35°11' E 139°46'1010.4
2014-Dec-21 04:33N 35°21' E 139°42'1010.5
2014-Dec-21 03:33N 35°29' E 139°50'13 4.3
2014-Dec-21 00:32N 35°33' E 140°05'8 2.7
2014-Dec-20 21:21N 35°29' E 139°55'0 0.0
2014-Dec-20 19:13N 35°29' E 139°56'0 0.1
2014-Dec-20 18:20N 35°29' E 139°56'0 0.0
2014-Dec-20 17:33N 35°29' E 139°56'0 0.1
2014-Dec-20 16:26N 35°29' E 139°56'6 6.9
2014-Dec-20 15:33N 35°26' E 139°49'1110.5
2014-Dec-20 14:33N 35°16' E 139°47'1110.2
2014-Dec-20 13:26N 35°06' E 139°41'24010.0
2014-Dec-19 13:24N 33°59' E 135°01'1111.9
2014-Dec-19 12:31N 34°10' E 134°59'1111.9
2014-Dec-19 11:33N 34°21' E 134°60'1212.0
2014-Dec-19 10:33N 34°29' E 135°11'1211.9
2014-Dec-19 09:33N 34°36' E 135°23'3 3.2
2014-Dec-19 08:33N 34°34' E 135°26'0 0.0
2014-Dec-19 07:32N 34°34' E 135°26'0 0.0
2014-Dec-19 06:32N 34°34' E 135°26'3 3.1
2014-Dec-19 05:33N 34°36' E 135°23'8 7.9
2014-Dec-19 04:33N 34°31' E 135°16'1110.9
2014-Dec-19 03:31N 34°23' E 135°06'9 9.5
2014-Dec-19 02:32N 34°15' E 134°59'1111.0
2014-Dec-19 01:33N 34°04' E 135°01'  
2014-Dec-15 12:08N 33°58' E 134°60'711.6
2014-Dec-15 11:33N 34°05' E 134°59'1312.2
2014-Dec-15 10:27N 34°18' E 134°59'1011.7
2014-Dec-15 09:33N 34°26' E 135°07'1211.6
2014-Dec-15 08:33N 34°33' E 135°18'7 4.8
2014-Dec-15 07:09N 34°35' E 135°26'0 0.0
2014-Dec-15 06:21N 34°35' E 135°26'0 0.0
2014-Dec-15 03:27N 34°35' E 135°26'3 3.5
2014-Dec-15 02:33N 34°36' E 135°23'3 3.1
2014-Dec-15 01:30N 34°35' E 135°19'0 0.0
2014-Dec-15 00:30N 34°35' E 135°19'0 0.0
2014-Dec-14 23:30N 34°35' E 135°19'0 0.0
2014-Dec-14 22:30N 34°35' E 135°19'0 0.0
2014-Dec-14 21:18N 34°35' E 135°19'0 0.0
2014-Dec-14 20:24N 34°35' E 135°19'0 0.0
2014-Dec-14 19:18N 34°35' E 135°19'0 0.0
2014-Dec-14 18:30N 34°35' E 135°19'0 0.0
2014-Dec-14 17:24N 34°35' E 135°19'0 0.0
2014-Dec-14 16:30N 34°35' E 135°19'0 0.0
2014-Dec-14 15:24N 34°35' E 135°19'0 0.0
2014-Dec-14 14:30N 34°35' E 135°19'0 0.0
2014-Dec-14 13:30N 34°35' E 135°19'0 0.0
2014-Dec-14 12:30N 34°35' E 135°19'0 0.0
2014-Dec-14 11:30N 34°35' E 135°19'0 0.0
2014-Dec-14 10:24N 34°35' E 135°19'0 0.0
2014-Dec-14 09:24N 34°35' E 135°19'0 0.0
2014-Dec-14 08:18N 34°35' E 135°19'0 0.0
2014-Dec-14 07:30N 34°35' E 135°19'8 8.0
2014-Dec-14 06:33N 34°30' E 135°13'1211.9
2014-Dec-14 05:33N 34°21' E 135°03'1110.9
2014-Dec-14 04:33N 34°10' E 135°00'1110.4
2014-Dec-14 03:29N 33°59' E 135°02'  
Track history (hours):
 
Tides and Currents Weather Stations Pressure Air Temp Water Temp Dewpoint Dewpoint Depression Visibility Wind Speed Wind Dir Waves Ship Positions

Oval Lp No.11

Last reported at 2014-Dec-21 05:28 UTC. Time now 2014-Dec-21 21:35 UTC.
Position N 35°11' E 139°46'.

Length 67 m; draft 3.6 m.

Type: Ship (hazmat cat A). MMSI: 431500366.

Date/timePositionNaut miles runAvg speedWind from/ knotsBaromVisibWave heightAir tempDewpointWater temp
2014-Dec-21 05:28N 35°11' E 139°46'1010.4
2014-Dec-21 04:33N 35°21' E 139°42'1010.5
2014-Dec-21 03:33N 35°29' E 139°50'13 4.3
2014-Dec-21 00:32N 35°33' E 140°05'8 2.7
2014-Dec-20 21:21N 35°29' E 139°55'0 0.0
2014-Dec-20 19:13N 35°29' E 139°56'0 0.1
2014-Dec-20 18:20N 35°29' E 139°56'0 0.0
2014-Dec-20 17:33N 35°29' E 139°56'0 0.1
2014-Dec-20 16:26N 35°29' E 139°56'6 6.9
2014-Dec-20 15:33N 35°26' E 139°49'1110.5
2014-Dec-20 14:33N 35°16' E 139°47'1110.2
2014-Dec-20 13:26N 35°06' E 139°41'24010.0
2014-Dec-19 13:24N 33°59' E 135°01'1111.9
2014-Dec-19 12:31N 34°10' E 134°59'1111.9
2014-Dec-19 11:33N 34°21' E 134°60'1212.0
2014-Dec-19 10:33N 34°29' E 135°11'1211.9
2014-Dec-19 09:33N 34°36' E 135°23'3 3.2
2014-Dec-19 08:33N 34°34' E 135°26'0 0.0
2014-Dec-19 07:32N 34°34' E 135°26'0 0.0
2014-Dec-19 06:32N 34°34' E 135°26'3 3.1
2014-Dec-19 05:33N 34°36' E 135°23'8 7.9
2014-Dec-19 04:33N 34°31' E 135°16'1110.9
2014-Dec-19 03:31N 34°23' E 135°06'9 9.5
2014-Dec-19 02:32N 34°15' E 134°59'1111.0
2014-Dec-19 01:33N 34°04' E 135°01'  
2014-Dec-15 12:08N 33°58' E 134°60'711.6
2014-Dec-15 11:33N 34°05' E 134°59'1312.2
2014-Dec-15 10:27N 34°18' E 134°59'1011.7
2014-Dec-15 09:33N 34°26' E 135°07'1211.6
2014-Dec-15 08:33N 34°33' E 135°18'7 4.8
2014-Dec-15 07:09N 34°35' E 135°26'0 0.0
2014-Dec-15 06:21N 34°35' E 135°26'0 0.0
2014-Dec-15 03:27N 34°35' E 135°26'3 3.5
2014-Dec-15 02:33N 34°36' E 135°23'3 3.1
2014-Dec-15 01:30N 34°35' E 135°19'0 0.0
2014-Dec-15 00:30N 34°35' E 135°19'0 0.0
2014-Dec-14 23:30N 34°35' E 135°19'0 0.0
2014-Dec-14 22:30N 34°35' E 135°19'0 0.0
2014-Dec-14 21:18N 34°35' E 135°19'0 0.0
2014-Dec-14 20:24N 34°35' E 135°19'0 0.0
2014-Dec-14 19:18N 34°35' E 135°19'0 0.0
2014-Dec-14 18:30N 34°35' E 135°19'0 0.0
2014-Dec-14 17:24N 34°35' E 135°19'0 0.0
2014-Dec-14 16:30N 34°35' E 135°19'0 0.0
2014-Dec-14 15:24N 34°35' E 135°19'0 0.0
2014-Dec-14 14:30N 34°35' E 135°19'0 0.0
2014-Dec-14 13:30N 34°35' E 135°19'0 0.0
2014-Dec-14 12:30N 34°35' E 135°19'0 0.0
2014-Dec-14 11:30N 34°35' E 135°19'0 0.0
2014-Dec-14 10:24N 34°35' E 135°19'0 0.0
2014-Dec-14 09:24N 34°35' E 135°19'0 0.0
2014-Dec-14 08:18N 34°35' E 135°19'0 0.0
2014-Dec-14 07:30N 34°35' E 135°19'8 8.0
2014-Dec-14 06:33N 34°30' E 135°13'1211.9
2014-Dec-14 05:33N 34°21' E 135°03'1110.9
2014-Dec-14 04:33N 34°10' E 135°00'1110.4
2014-Dec-14 03:29N 33°59' E 135°02'  

Dump ship's entire track history